Fenter, Arkansas
Current Conditions -  °F | °C
As of 1:53 PM on Sunday 25 Jan 2015 (Local Time) from KHOT Reporting Station
Overcast Overcast  
Wind Chill: 56°   Ceiling: 6000
Heat Index: 56°   Visibility: 10mi
Dew Point: 33°   Wind: 18mph
Humidity: 42%   Direction: 310°NW
Pressure: 29.81"   Gusts: 33mph
Location:  34.445°N, 92.6447°W
Report Text: KHOT 251953Z AUTO 31016G29KT 10SM OVC060 13/01 A2981 RMK AO2 PK WND 30031/1938 SLP094 T01330006
Loading
Personal Weather Stations






























Interactive Weather Map New forecast layout! Learn more

10-Day Weather Forecast

Advertisements
Track Severe Weather on mobile